Trappe, Maryland
Current Conditions -  °F | °C
As of 10:25 PM on Monday 20 Oct 2014 (Local Time) from KCGE Reporting Station
Clear Clear  
Wind Chill: 55°   Ceiling: Unl
Heat Index: 55°   Visibility: 10mi
Dew Point: 48°   Wind: 3mph
Humidity: 77%   Direction: 150°SSE
Pressure: 29.98"   Gusts: NA
Location:  38.66°N, 76.06°W
Report Text: KCGE 210225Z AUTO 15003KT 10SM CLR 13/09 A2998 RMK AO1
Loading
Personal Weather Stations






























Interactive Weather Map
Tropical Storm Tracking
New forecast layout! Learn more

10-Day Weather Forecast

Advertisements
Track Severe Weather on mobile